Time;durP1;ratioP1;P1;durP2;ratioP2;P2;SDS_P1;SDS_P2;PMS_P1;PMS_P2;Temp;Humidity;BMP_temperature;BMP_pressure;BME280_temperature;BME280_humidity;BME280_pressure;Samples;Min_cycle;Max_cycle;Signal;HPM_P1;HPM_P2
2023/12/17 00:02:00;;;;;;;7.93;3.93;;;;;;;7.13;99.81;102916.94;5031932;28;20203;-72
2023/12/17 00:04:26;;;;;;;6.63;3.10;;;;;;;7.13;100.00;102909.84;5033830;28;20196;-73
2023/12/17 00:06:52;;;;;;;8.87;3.33;;;;;;;7.13;100.00;102912.47;5031924;28;20205;-73
2023/12/17 00:09:19;;;;;;;6.90;3.77;;;;;;;7.14;100.00;102908.03;5034595;28;20224;-74
2023/12/17 00:11:45;;;;;;;8.03;3.90;;;;;;;7.14;100.00;102897.53;5032797;28;20196;-73
2023/12/17 00:14:12;;;;;;;10.70;3.57;;;;;;;7.16;100.00;102895.44;5038085;28;20209;-72
2023/12/17 00:16:38;;;;;;;7.70;3.80;;;;;;;7.15;100.00;102885.97;5031363;28;20215;-72
2023/12/17 00:19:06;;;;;;;13.23;4.03;;;;;;;7.15;100.00;102893.84;5034201;28;20212;-74
2023/12/17 00:21:33;;;;;;;10.10;3.87;;;;;;;7.15;100.00;102892.00;5037384;28;20206;-72
2023/12/17 00:23:59;;;;;;;9.97;3.63;;;;;;;7.16;100.00;102882.28;5037757;28;20203;-72
2023/12/17 00:26:25;;;;;;;10.77;4.07;;;;;;;7.16;100.00;102884.91;5032197;28;20208;-73
2023/12/17 00:28:52;;;;;;;7.50;3.80;;;;;;;7.15;100.00;102880.72;5020671;28;20229;-74
2023/12/17 00:31:18;;;;;;;9.07;3.83;;;;;;;7.16;100.00;102874.41;5038574;28;20211;-73
2023/12/17 00:33:45;;;;;;;8.93;3.97;;;;;;;7.16;100.00;102872.59;5038602;28;20558;-72
2023/12/17 00:36:12;;;;;;;9.53;3.33;;;;;;;7.16;100.00;102877.84;5038036;28;20203;-72
2023/12/17 00:38:39;;;;;;;7.90;3.50;;;;;;;7.15;100.00;102872.84;5039222;28;20246;-73
2023/12/17 00:41:05;;;;;;;9.37;3.53;;;;;;;7.16;100.00;102877.84;5022548;28;20671;-72
2023/12/17 00:43:32;;;;;;;9.43;4.10;;;;;;;7.18;100.00;102895.97;5041820;28;20208;-72
2023/12/17 00:45:58;;;;;;;7.43;3.30;;;;;;;7.16;100.00;102885.72;5018285;28;20207;-73
2023/12/17 00:48:24;;;;;;;8.60;3.47;;;;;;;7.17;100.00;102889.94;5041000;28;20222;-74
2023/12/17 00:50:51;;;;;;;9.33;3.77;;;;;;;7.17;100.00;102871.53;5022675;28;20667;-74
2023/12/17 00:53:19;;;;;;;11.03;3.83;;;;;;;7.16;100.00;102862.09;5038704;28;20291;-73
2023/12/17 00:55:45;;;;;;;11.40;4.60;;;;;;;7.18;100.00;102860.00;5037853;28;20247;-73
2023/12/17 00:58:11;;;;;;;11.97;4.60;;;;;;;7.19;100.00;102872.09;5040789;28;20587;-74
2023/12/17 01:00:38;;;;;;;5.83;3.73;;;;;;;7.19;100.00;102873.94;5021537;28;20770;-72
2023/12/17 01:03:04;;;;;;;10.83;4.03;;;;;;;7.18;100.00;102880.19;5040155;28;20211;-74
2023/12/17 01:05:33;;;;;;;8.13;3.83;;;;;;;7.18;100.00;102883.63;5024191;28;20209;-73
2023/12/17 01:07:59;;;;;;;11.80;5.10;;;;;;;7.19;100.00;102885.22;5038333;28;20300;-73
2023/12/17 01:10:27;;;;;;;10.90;4.57;;;;;;;7.17;100.00;102882.06;5020422;28;20221;-74
2023/12/17 01:12:53;;;;;;;9.13;3.80;;;;;;;7.17;100.00;102884.69;5039436;28;20212;-73
2023/12/17 01:15:19;;;;;;;7.93;3.63;;;;;;;7.16;100.00;102890.19;5042125;28;20191;-72
2023/12/17 01:17:46;;;;;;;9.87;3.83;;;;;;;7.13;100.00;102891.47;5038842;28;20300;-73
2023/12/17 01:20:13;;;;;;;10.00;4.57;;;;;;;7.11;100.00;102903.25;5042016;28;20191;-74
2023/12/17 01:22:39;;;;;;;11.93;4.30;;;;;;;7.09;100.00;102910.59;5039026;28;20737;-73
2023/12/17 01:25:07;;;;;;;9.50;4.43;;;;;;;7.08;100.00;102907.16;5041264;28;20201;-73
2023/12/17 01:27:34;;;;;;;13.33;4.37;;;;;;;7.08;100.00;102906.34;5035050;28;20203;-73
2023/12/17 01:30:01;;;;;;;11.83;4.93;;;;;;;7.05;100.00;102899.75;5037013;28;20593;-73
2023/12/17 01:32:27;;;;;;;11.87;4.30;;;;;;;7.04;100.00;102900.81;5038460;28;20425;-73
2023/12/17 01:34:54;;;;;;;10.70;4.57;;;;;;;7.02;100.00;102899.47;5020607;28;20212;-74
2023/12/17 01:37:21;;;;;;;12.27;4.53;;;;;;;6.98;100.00;102895.72;5018017;28;20678;-73
2023/12/17 01:39:48;;;;;;;8.37;4.70;;;;;;;6.96;100.00;102892.56;5035970;28;20239;-74
2023/12/17 01:42:14;;;;;;;10.73;4.00;;;;;;;6.91;100.00;102895.13;5042484;28;20205;-72
2023/12/17 01:44:42;;;;;;;7.27;3.97;;;;;;;6.86;100.00;102892.44;5021845;28;20544;-73
2023/12/17 01:47:09;;;;;;;11.93;4.10;;;;;;;6.83;100.00;102901.59;5025794;28;20249;-73
2023/12/17 01:49:35;;;;;;;8.67;4.63;;;;;;;6.79;100.00;102902.34;5038404;28;20231;-72
2023/12/17 01:52:02;;;;;;;11.50;4.30;;;;;;;6.74;100.00;102900.44;5039149;28;20628;-74
2023/12/17 01:54:28;;;;;;;10.53;4.07;;;;;;;6.71;100.00;102887.81;5037600;28;20207;-72
2023/12/17 01:56:54;;;;;;;11.30;5.07;;;;;;;6.70;100.00;102890.66;5036622;28;20200;-73
2023/12/17 01:59:22;;;;;;;12.17;4.43;;;;;;;6.68;100.00;102887.50;5038208;28;20591;-73
2023/12/17 02:01:53;;;;;;;7.43;3.60;;;;;;;6.63;100.00;102888.22;5041647;28;20559;-72
2023/12/17 02:04:21;;;;;;;8.97;3.73;;;;;;;6.59;100.00;102894.22;5037435;28;20210;-73
2023/12/17 02:06:47;;;;;;;9.57;3.87;;;;;;;6.56;100.00;102899.94;5038603;28;20205;-73
2023/12/17 02:09:14;;;;;;;14.07;4.57;;;;;;;6.52;100.00;102902.25;5039790;28;20226;-73
2023/12/17 02:11:40;;;;;;;13.70;4.17;;;;;;;6.49;100.00;102899.31;5037427;28;20269;-72
2023/12/17 02:14:06;;;;;;;8.20;4.13;;;;;;;6.47;100.00;102911.91;5041854;28;20203;-73
2023/12/17 02:16:33;;;;;;;9.23;4.37;;;;;;;6.44;100.00;102907.94;5041481;28;20298;-73
2023/12/17 02:19:01;;;;;;;10.60;3.77;;;;;;;6.42;100.00;102920.47;5035857;28;20710;-73
2023/12/17 02:21:27;;;;;;;11.27;3.83;;;;;;;6.39;100.00;102920.97;5038959;28;20275;-73
2023/12/17 02:23:55;;;;;;;11.93;4.20;;;;;;;6.38;100.00;102908.84;5040117;28;20290;-74
2023/12/17 02:26:22;;;;;;;9.37;4.40;;;;;;;6.34;100.00;102909.59;5040361;28;20549;-73
2023/12/17 02:28:48;;;;;;;8.47;3.70;;;;;;;6.33;100.00;102910.63;5033658;28;20213;-73
2023/12/17 02:31:14;;;;;;;12.10;3.93;;;;;;;6.31;100.00;102907.47;5039731;28;20237;-73
2023/12/17 02:33:40;;;;;;;9.80;3.90;;;;;;;6.28;100.00;102905.31;5038436;28;20203;-72
2023/12/17 02:36:07;;;;;;;11.83;4.07;;;;;;;6.25;100.00;102897.91;5023890;28;20199;-73
2023/12/17 02:38:34;;;;;;;7.03;4.00;;;;;;;6.21;100.00;102899.44;5038440;28;20227;-74
2023/12/17 02:41:01;;;;;;;10.23;4.40;;;;;;;6.18;100.00;102892.03;5039078;28;20196;-73
2023/12/17 02:43:28;;;;;;;12.77;4.53;;;;;;;6.15;100.00;102884.63;5019686;28;20659;-73
2023/12/17 02:45:54;;;;;;;16.30;4.70;;;;;;;6.13;100.00;102891.97;5043387;28;20195;-73
2023/12/17 02:48:20;;;;;;;10.77;4.30;;;;;;;6.11;100.00;102886.94;5037992;28;20215;-74
2023/12/17 02:50:47;;;;;;;11.73;4.53;;;;;;;6.11;100.00;102892.19;5021045;28;20282;-73
2023/12/17 02:53:13;;;;;;;10.57;4.43;;;;;;;6.11;100.00;102892.19;5039692;28;20674;-73
2023/12/17 02:55:39;;;;;;;8.40;4.30;;;;;;;6.10;100.00;102897.69;5040302;28;20196;-73
2023/12/17 02:58:07;;;;;;;11.60;4.30;;;;;;;6.11;100.00;102897.44;5037986;28;20218;-73
2023/12/17 03:00:33;;;;;;;7.53;3.73;;;;;;;6.10;100.00;102901.09;5039803;28;20199;-73
2023/12/17 03:03:00;;;;;;;9.30;4.50;;;;;;;6.10;100.00;102905.53;5040006;28;20214;-73
2023/12/17 03:05:26;;;;;;;13.27;4.53;;;;;;;6.08;100.00;102903.19;5039442;28;20200;-73
2023/12/17 03:07:52;;;;;;;8.93;3.93;;;;;;;6.07;100.00;102911.28;5039137;28;20582;-73
2023/12/17 03:10:19;;;;;;;8.37;3.80;;;;;;;6.05;100.00;102901.03;5035808;28;20207;-73
2023/12/17 03:12:45;;;;;;;9.73;4.20;;;;;;;6.04;100.00;102896.00;5038333;28;20196;-73
2023/12/17 03:15:12;;;;;;;14.10;4.77;;;;;;;6.03;100.00;102897.06;5035088;28;20195;-72
2023/12/17 03:17:39;;;;;;;9.57;4.57;;;;;;;6.01;100.00;102884.16;5039724;28;20230;-73
2023/12/17 03:20:07;;;;;;;11.80;5.27;;;;;;;5.99;100.00;102891.50;5037618;28;20219;-73
2023/12/17 03:22:33;;;;;;;11.33;4.13;;;;;;;5.97;100.00;102893.56;5040015;28;20207;-73
2023/12/17 03:25:00;;;;;;;8.53;3.90;;;;;;;5.95;100.00;102898.25;5039348;28;20206;-73
2023/12/17 03:27:27;;;;;;;8.73;3.90;;;;;;;5.93;100.00;102904.75;5040090;28;20207;-74
2023/12/17 03:29:53;;;;;;;13.10;4.37;;;;;;;5.92;100.00;102909.22;5037509;28;20503;-72
2023/12/17 03:32:21;;;;;;;9.67;4.03;;;;;;;5.91;100.00;102909.47;5038619;28;20218;-73
2023/12/17 03:34:47;;;;;;;9.50;4.17;;;;;;;5.91;100.00;102917.31;5038318;28;20199;-73
2023/12/17 03:37:14;;;;;;;13.47;4.27;;;;;;;5.90;100.00;102913.13;5038437;28;20681;-74
2023/12/17 03:39:40;;;;;;;10.03;3.77;;;;;;;5.89;100.00;102912.31;5035312;28;20386;-73
2023/12/17 03:42:06;;;;;;;9.57;4.20;;;;;;;5.87;100.00;102903.09;5019373;28;20531;-72
2023/12/17 03:44:33;;;;;;;7.10;4.07;;;;;;;5.85;100.00;102898.06;5039202;28;20200;-73
2023/12/17 03:46:59;;;;;;;11.67;4.40;;;;;;;5.85;100.00;102902.53;5037464;28;20283;-73
2023/12/17 03:49:27;;;;;;;9.73;3.90;;;;;;;5.82;100.00;102892.50;5041419;28;20226;-72
2023/12/17 03:51:53;;;;;;;9.40;4.47;;;;;;;5.80;100.00;102892.75;5036639;28;20211;-73
2023/12/17 03:54:20;;;;;;;9.17;3.77;;;;;;;5.79;100.00;102883.28;5039095;28;20207;-73
2023/12/17 03:56:47;;;;;;;8.17;3.60;;;;;;;5.78;100.00;102878.25;5017382;28;20207;-72
2023/12/17 03:59:13;;;;;;;8.60;3.70;;;;;;;5.78;100.00;102888.75;5023821;28;20276;-73
2023/12/17 04:01:44;;;;;;;9.73;3.97;;;;;;;5.79;100.00;102885.09;5039122;28;20638;-73
2023/12/17 04:04:11;;;;;;;12.07;4.40;;;;;;;5.78;100.00;102884.31;5034190;28;20215;-73
2023/12/17 04:06:41;;;;;;;15.77;5.03;;;;;;;5.81;100.00;102885.69;5040736;28;20203;-74
2023/12/17 04:09:08;;;;;;;9.90;3.90;;;;;;;5.84;100.00;102887.81;5035437;28;20230;-74
2023/12/17 04:11:34;;;;;;;11.23;4.77;;;;;;;5.85;100.00;102877.09;5037044;28;20218;-73
2023/12/17 04:14:01;;;;;;;8.97;4.83;;;;;;;5.89;100.00;102880.03;5039106;28;20207;-72
2023/12/17 04:16:28;;;;;;;6.63;4.13;;;;;;;5.91;100.00;102880.63;5037980;28;20191;-74
2023/12/17 04:18:54;;;;;;;8.63;4.20;;;;;;;5.93;100.00;102881.16;5039173;28;20223;-73
2023/12/17 04:21:20;;;;;;;11.47;4.10;;;;;;;5.95;100.00;102874.63;5038090;28;20199;-72
2023/12/17 04:23:48;;;;;;;7.27;4.20;;;;;;;5.98;100.00;102889.09;5037875;28;20607;-73
2023/12/17 04:26:14;;;;;;;12.47;4.30;;;;;;;6.00;100.00;102885.22;5041283;28;20206;-73
2023/12/17 04:28:41;;;;;;;14.00;4.30;;;;;;;6.02;100.00;102880.50;5037575;28;20231;-73
2023/12/17 04:31:07;;;;;;;7.60;4.20;;;;;;;6.05;100.00;102881.88;5035929;28;20212;-72
2023/12/17 04:33:33;;;;;;;10.67;5.37;;;;;;;6.06;100.00;102886.88;5035104;28;20206;-73
2023/12/17 04:36:00;;;;;;;10.93;4.00;;;;;;;6.08;100.00;102884.03;5039170;28;20196;-73
2023/12/17 04:38:26;;;;;;;8.37;3.83;;;;;;;6.11;100.00;102894.03;5023760;28;20233;-74
2023/12/17 04:40:54;;;;;;;8.23;3.30;;;;;;;6.12;100.00;102893.00;5037345;28;20196;-74
2023/12/17 04:43:21;;;;;;;9.87;4.33;;;;;;;6.14;100.00;102899.59;5032176;28;20203;-73
2023/12/17 04:45:47;;;;;;;6.73;4.03;;;;;;;6.15;100.00;102901.19;5035910;28;20199;-74
2023/12/17 04:48:14;;;;;;;6.73;3.80;;;;;;;6.16;100.00;102900.16;5021880;28;20231;-74
2023/12/17 04:50:41;;;;;;;5.40;3.93;;;;;;;6.17;100.00;102895.72;5037409;28;20198;-74
2023/12/17 04:53:07;;;;;;;8.77;3.97;;;;;;;6.19;100.00;102893.63;5034793;28;20210;-73
2023/12/17 04:55:34;;;;;;;9.60;4.37;;;;;;;6.20;100.00;102900.44;5038800;28;20354;-73
2023/12/17 04:58:02;;;;;;;6.97;4.07;;;;;;;6.21;100.00;102897.59;5035144;28;20206;-73
2023/12/17 05:00:28;;;;;;;7.37;4.10;;;;;;;6.22;100.00;102893.16;5033033;28;20207;-74
2023/12/17 05:02:54;;;;;;;8.17;4.07;;;;;;;6.25;100.00;102892.66;5035298;28;20202;-73
2023/12/17 05:05:22;;;;;;;7.97;3.67;;;;;;;6.25;100.00;102897.91;5037083;28;20203;-74
2023/12/17 05:07:49;;;;;;;7.33;3.40;;;;;;;6.26;100.00;102902.91;5035681;28;20582;-74
2023/12/17 05:10:15;;;;;;;9.20;3.97;;;;;;;6.28;100.00;102900.88;5017969;28;20207;-73
2023/12/17 05:12:42;;;;;;;7.07;3.87;;;;;;;6.28;100.00;102898.25;5040065;28;20222;-73
2023/12/17 05:15:09;;;;;;;8.40;4.33;;;;;;;6.29;100.00;102902.44;5036957;28;20192;-74
2023/12/17 05:17:36;;;;;;;9.37;4.40;;;;;;;6.30;100.00;102903.22;5042181;28;20207;-72
2023/12/17 05:20:02;;;;;;;8.23;4.37;;;;;;;6.31;100.00;102915.34;5043472;28;20594;-73
2023/12/17 05:22:28;;;;;;;9.80;4.17;;;;;;;6.32;100.00;102909.06;5044836;28;20195;-73
2023/12/17 05:24:55;;;;;;;11.43;4.03;;;;;;;6.33;100.00;102915.88;5038927;28;20674;-74
2023/12/17 05:27:21;;;;;;;11.20;4.23;;;;;;;6.33;100.00;102911.41;5040766;28;20200;-74
2023/12/17 05:29:47;;;;;;;8.27;4.33;;;;;;;6.35;100.00;102911.19;5037042;28;20223;-74
2023/12/17 05:32:15;;;;;;;8.10;4.20;;;;;;;6.35;100.00;102919.03;5040871;28;20249;-73
2023/12/17 05:34:41;;;;;;;12.67;4.37;;;;;;;6.35;100.00;102922.47;5044439;28;20602;-74
2023/12/17 05:37:08;;;;;;;10.40;4.10;;;;;;;6.35;100.00;102927.72;5042903;28;20671;-74
2023/12/17 05:39:34;;;;;;;8.77;3.93;;;;;;;6.37;100.00;102927.50;5043857;28;20220;-73
2023/12/17 05:42:00;;;;;;;7.90;4.23;;;;;;;6.37;100.00;102930.91;5040667;28;20202;-73
2023/12/17 05:44:27;;;;;;;6.77;4.30;;;;;;;6.38;100.00;102924.59;5025331;28;20730;-73
2023/12/17 05:46:52;;;;;;;10.17;6.90;;;;;;;6.38;100.00;102931.69;5043865;28;20201;-73
2023/12/17 05:49:20;;;;;;;8.70;5.37;;;;;;;6.39;100.00;102935.91;5042422;28;20228;-74
2023/12/17 05:51:46;;;;;;;9.60;4.03;;;;;;;6.39;100.00;102923.59;5041017;28;20586;-73
2023/12/17 05:54:12;;;;;;;8.23;4.43;;;;;;;6.38;100.00;102921.97;5037764;28;20663;-73
2023/12/17 05:56:40;;;;;;;7.13;4.30;;;;;;;6.38;100.00;102921.19;5040956;28;20226;-73
2023/12/17 05:59:06;;;;;;;14.40;4.97;;;;;;;6.39;100.00;102925.41;5024435;28;20667;-73
2023/12/17 06:01:32;;;;;;;7.83;4.67;;;;;;;6.39;100.00;102922.78;5041972;28;20567;-73
2023/12/17 06:03:58;;;;;;;9.37;4.67;;;;;;;6.38;100.00;102921.19;5039957;28;20195;-72
2023/12/17 06:06:27;;;;;;;5.40;4.00;;;;;;;6.40;100.00;102924.38;5039914;28;20203;-73
2023/12/17 06:08:53;;;;;;;9.27;5.10;;;;;;;6.38;100.00;102916.72;5041446;28;20472;-73
2023/12/17 06:11:19;;;;;;;9.67;4.10;;;;;;;6.38;100.00;102915.97;5041391;28;20217;-73
2023/12/17 06:13:46;;;;;;;8.53;3.93;;;;;;;6.38;100.00;102921.19;5042780;28;20253;-73
2023/12/17 06:16:13;;;;;;;8.20;4.77;;;;;;;6.38;100.00;102921.19;5040762;28;20200;-73
2023/12/17 06:18:39;;;;;;;11.10;4.67;;;;;;;6.38;100.00;102924.59;5041103;28;20233;-73
2023/12/17 06:21:06;;;;;;;12.60;5.80;;;;;;;6.39;100.00;102928.03;5041261;28;20188;-73
2023/12/17 06:23:34;;;;;;;8.73;4.60;;;;;;;6.38;100.00;102921.19;5040358;28;20705;-73
2023/12/17 06:26:04;;;;;;;8.70;4.43;;;;;;;6.39;100.00;102928.84;5025238;28;20203;-73
2023/12/17 06:28:30;;;;;;;13.83;4.37;;;;;;;6.39;100.00;102923.59;5042006;28;20253;-73
2023/12/17 06:30:56;;;;;;;9.57;4.80;;;;;;;6.39;100.00;102920.97;5042381;28;20198;-73
2023/12/17 06:33:23;;;;;;;7.70;4.57;;;;;;;6.39;100.00;102918.34;5037675;28;20604;-73
2023/12/17 06:35:49;;;;;;;8.17;5.10;;;;;;;6.40;100.00;102912.06;5038095;28;20211;-73
2023/12/17 06:38:15;;;;;;;9.73;4.90;;;;;;;6.40;100.00;102933.06;5038945;28;20506;-73
2023/12/17 06:40:43;;;;;;;9.17;4.83;;;;;;;6.40;100.00;102927.00;5038360;28;20196;-73
2023/12/17 06:43:08;;;;;;;8.77;4.40;;;;;;;6.41;100.00;102936.44;5043239;28;20196;-73
2023/12/17 06:45:35;;;;;;;13.13;5.17;;;;;;;6.41;100.00;102939.06;5021835;28;20226;-74
2023/12/17 06:48:01;;;;;;;9.80;4.60;;;;;;;6.40;100.00;102938.31;5039004;28;20204;-72
2023/12/17 06:50:27;;;;;;;8.47;4.60;;;;;;;6.43;100.00;102944.91;5039247;28;20204;-74
2023/12/17 06:52:54;;;;;;;9.20;5.67;;;;;;;6.42;100.00;102951.19;5020217;28;20223;-75
2023/12/17 06:55:20;;;;;;;11.07;5.20;;;;;;;6.44;100.00;102949.09;5040992;28;20210;-72
2023/12/17 06:57:48;;;;;;;7.57;4.70;;;;;;;6.44;100.00;102941.22;5038024;28;20202;-73
2023/12/17 07:00:15;;;;;;;9.67;4.97;;;;;;;6.43;100.00;102940.44;5040247;28;20199;-73
2023/12/17 07:02:42;;;;;;;8.67;5.63;;;;;;;6.45;100.00;102946.25;5039332;28;20196;-73
2023/12/17 07:05:09;;;;;;;12.77;5.17;;;;;;;6.44;100.00;102936.78;5023783;28;20253;-75
2023/12/17 07:07:35;;;;;;;9.37;4.53;;;;;;;6.44;100.00;102947.28;5037615;28;20195;-74
2023/12/17 07:10:02;;;;;;;11.17;5.47;;;;;;;6.44;100.00;102934.16;5043362;28;20223;-74
2023/12/17 07:12:28;;;;;;;7.53;5.10;;;;;;;6.45;100.00;102930.50;5037920;28;20697;-73
2023/12/17 07:14:57;;;;;;;8.80;4.70;;;;;;;6.47;100.00;102938.91;5040489;28;20391;-73
2023/12/17 07:17:23;;;;;;;10.63;4.80;;;;;;;6.46;100.00;102941.78;5037277;28;20211;-72
2023/12/17 07:19:49;;;;;;;8.63;5.33;;;;;;;6.46;100.00;102939.97;5038899;28;20691;-74
2023/12/17 07:22:16;;;;;;;13.57;5.67;;;;;;;6.49;100.00;102951.81;5042075;28;20656;-74
2023/12/17 07:24:43;;;;;;;7.50;4.63;;;;;;;6.47;100.00;102948.63;5036433;28;20195;-74
2023/12/17 07:27:10;;;;;;;11.00;5.63;;;;;;;6.48;100.00;102955.47;5038250;28;21546;-73
2023/12/17 07:29:36;;;;;;;8.43;4.60;;;;;;;6.49;100.00;102957.88;5038502;28;20582;-74
2023/12/17 07:32:04;;;;;;;8.03;4.30;;;;;;;6.50;100.00;102954.19;5038185;28;20230;-72
2023/12/17 07:34:31;;;;;;;9.60;4.43;;;;;;;6.51;100.00;102953.16;5039033;28;20208;-73
2023/12/17 07:36:57;;;;;;;10.20;4.73;;;;;;;6.52;100.00;102951.34;5039882;28;20203;-73
2023/12/17 07:39:23;;;;;;;7.50;4.30;;;;;;;6.51;100.00;102945.28;5023800;28;20774;-73
2023/12/17 07:41:50;;;;;;;10.87;5.10;;;;;;;6.54;100.00;102949.25;5038747;28;20447;-72
2023/12/17 07:44:16;;;;;;;10.50;4.70;;;;;;;6.53;100.00;102950.28;5021317;28;20196;-74
2023/12/17 07:46:42;;;;;;;16.87;10.37;;;;;;;6.56;100.00;102960.28;5039053;28;20207;-73
2023/12/17 07:49:10;;;;;;;8.60;4.77;;;;;;;6.55;100.00;102956.09;5038867;28;20587;-73
2023/12/17 07:51:38;;;;;;;9.53;5.00;;;;;;;6.57;100.00;102959.28;5037456;28;20196;-73
2023/12/17 07:54:04;;;;;;;8.77;4.60;;;;;;;6.59;100.00;102967.69;5041457;28;20682;-73
2023/12/17 07:56:31;;;;;;;9.40;5.40;;;;;;;6.59;100.00;102960.63;5037740;28;20190;-74
2023/12/17 07:58:58;;;;;;;13.63;6.30;;;;;;;6.63;100.00;102966.19;5039330;28;20224;-73
2023/12/17 08:01:28;;;;;;;9.00;5.23;;;;;;;6.65;100.00;102956.22;5041358;28;20655;-73
2023/12/17 08:03:54;;;;;;;11.60;5.17;;;;;;;6.67;100.00;102948.91;5040185;28;20195;-74
2023/12/17 08:06:22;;;;;;;9.63;4.73;;;;;;;6.69;100.00;102942.38;5037439;28;20298;-73
2023/12/17 08:08:48;;;;;;;7.17;4.47;;;;;;;6.72;100.00;102941.91;5039553;28;20215;-73
2023/12/17 08:11:15;;;;;;;9.67;4.83;;;;;;;6.74;100.00;102939.81;5036474;28;20675;-73
2023/12/17 08:13:41;;;;;;;9.37;4.50;;;;;;;6.77;100.00;102944.59;5038039;28;20222;-74
2023/12/17 08:16:08;;;;;;;8.40;4.43;;;;;;;6.80;100.00;102940.69;5036864;28;20203;-74
2023/12/17 08:18:35;;;;;;;9.37;4.53;;;;;;;6.81;100.00;102935.22;5032531;28;20286;-73
2023/12/17 08:21:01;;;;;;;10.17;4.97;;;;;;;6.84;100.00;102931.31;5034038;28;20203;-73
2023/12/17 08:23:29;;;;;;;7.87;6.03;;;;;;;6.85;100.00;102919.75;5036279;28;20544;-73
2023/12/17 08:25:56;;;;;;;9.83;6.20;;;;;;;6.86;100.00;102922.13;5034225;28;20230;-74
2023/12/17 08:28:22;;;;;;;9.43;4.33;;;;;;;6.85;100.00;102925.81;5034962;28;20231;-73
2023/12/17 08:30:49;;;;;;;8.50;4.37;;;;;;;6.85;100.00;102923.19;5037387;28;20195;-73
2023/12/17 08:33:16;;;;;;;11.80;4.83;;;;;;;6.86;100.00;102913.47;5038522;28;20211;-72
2023/12/17 08:35:45;;;;;;;7.03;4.70;;;;;;;6.86;100.00;102918.72;5020928;28;20209;-74
2023/12/17 08:38:11;;;;;;;8.07;5.37;;;;;;;6.87;100.00;102921.09;5038221;28;21172;-73
2023/12/17 08:40:41;;;;;;;7.97;4.77;;;;;;;6.86;100.00;102924.78;5038034;28;20208;-72
2023/12/17 08:43:09;;;;;;;9.90;4.20;;;;;;;6.86;100.00;102927.41;5039417;28;20239;-74
2023/12/17 08:45:36;;;;;;;10.00;4.93;;;;;;;6.90;100.00;102931.13;5036343;28;20318;-73
2023/12/17 08:48:03;;;;;;;9.87;4.40;;;;;;;6.90;100.00;102940.81;5035098;28;21924;-72
2023/12/17 08:50:29;;;;;;;10.77;4.40;;;;;;;6.91;100.00;102942.41;5037267;28;20193;-73
2023/12/17 08:52:55;;;;;;;11.60;5.00;;;;;;;6.95;100.00;102946.16;5043779;28;20216;-73
2023/12/17 08:55:22;;;;;;;7.23;3.80;;;;;;;6.97;100.00;102954.56;5036707;28;20647;-72
2023/12/17 08:57:50;;;;;;;7.23;4.57;;;;;;;7.00;100.00;102948.84;5041083;28;20236;-73
2023/12/17 09:00:17;;;;;;;8.93;4.70;;;;;;;7.02;100.00;102954.63;5035695;28;20578;-73
2023/12/17 09:02:43;;;;;;;9.27;4.53;;;;;;;7.03;100.00;102940.44;5041210;28;20201;-73
2023/12/17 09:05:09;;;;;;;8.80;4.47;;;;;;;7.05;100.00;102946.28;5037024;28;20204;-73
2023/12/17 09:07:36;;;;;;;8.87;4.87;;;;;;;7.04;100.00;102945.47;5038918;28;20201;-73
2023/12/17 09:10:03;;;;;;;9.73;4.87;;;;;;;7.04;100.00;102934.97;5035983;28;20224;-72
2023/12/17 09:12:29;;;;;;;8.73;4.83;;;;;;;7.07;100.00;102938.94;5037837;28;20214;-73
2023/12/17 09:14:57;;;;;;;11.60;5.07;;;;;;;7.07;100.00;102931.06;5038289;28;20676;-73
2023/12/17 09:17:24;;;;;;;8.17;4.73;;;;;;;7.07;100.00;102929.22;5036168;28;20212;-73
2023/12/17 09:19:51;;;;;;;6.83;4.40;;;;;;;7.09;100.00;102926.38;5041085;28;20244;-74
2023/12/17 09:22:18;;;;;;;10.63;4.87;;;;;;;7.08;100.00;102906.34;5041675;28;20211;-74
2023/12/17 09:24:44;;;;;;;10.47;5.00;;;;;;;7.10;100.00;102909.56;5040798;28;20202;-74
2023/12/17 09:27:11;;;;;;;8.87;4.93;;;;;;;7.10;100.00;102905.06;5037010;28;20212;-73
2023/12/17 09:29:38;;;;;;;7.70;4.83;;;;;;;7.10;100.00;102905.06;5040628;28;20227;-73
2023/12/17 09:32:06;;;;;;;7.53;4.87;;;;;;;7.12;100.00;102904.84;5037929;28;20213;-73
2023/12/17 09:34:32;;;;;;;8.83;4.20;;;;;;;7.14;100.00;102902.78;5034086;28;20229;-73
2023/12/17 09:37:00;;;;;;;7.10;4.90;;;;;;;7.16;100.00;102901.50;5037064;28;20201;-73
2023/12/17 09:39:26;;;;;;;8.13;4.93;;;;;;;7.18;100.00;102894.16;5034042;28;20313;-73
2023/12/17 09:41:53;;;;;;;5.97;4.20;;;;;;;7.21;100.00;102906.00;5039805;28;20200;-73
2023/12/17 09:44:19;;;;;;;7.57;4.73;;;;;;;7.25;100.00;102909.72;5034472;28;20530;-73
2023/12/17 09:46:46;;;;;;;7.53;5.13;;;;;;;7.27;100.00;102903.19;5021321;28;21440;-73
2023/12/17 09:49:14;;;;;;;8.53;5.30;;;;;;;7.30;100.00;102907.94;5036896;28;20210;-72
2023/12/17 09:51:43;;;;;;;8.67;4.67;;;;;;;7.32;100.00;102905.06;5035270;28;20209;-72
2023/12/17 09:54:10;;;;;;;6.47;4.47;;;;;;;7.37;100.00;102915.63;5016793;28;20243;-74
2023/12/17 09:56:36;;;;;;;8.60;4.73;;;;;;;7.38;100.00;102911.97;5035492;28;20200;-73
2023/12/17 09:59:02;;;;;;;9.83;4.90;;;;;;;7.41;100.00;102912.25;5037669;28;20462;-73
2023/12/17 10:01:29;;;;;;;7.60;4.40;;;;;;;7.44;100.00;102913.59;5029832;28;20467;-71
2023/12/17 10:03:57;;;;;;;8.00;4.47;;;;;;;7.46;100.00;102916.78;5031337;28;20212;-73
2023/12/17 10:06:25;;;;;;;8.67;5.63;;;;;;;7.49;100.00;102913.63;5020355;28;20209;-73
2023/12/17 10:08:51;;;;;;;7.63;4.43;;;;;;;7.50;100.00;102908.16;5035641;28;20743;-74
2023/12/17 10:11:18;;;;;;;8.20;5.63;;;;;;;7.49;100.00;102903.94;5034852;28;20206;-72
2023/12/17 10:13:44;;;;;;;5.53;4.43;;;;;;;7.51;100.00;102906.31;5037117;28;20225;-72
2023/12/17 10:16:11;;;;;;;7.90;5.53;;;;;;;7.53;100.00;102904.22;5035366;28;20200;-73
2023/12/17 10:18:37;;;;;;;10.33;5.40;;;;;;;7.53;100.00;102910.28;5037096;28;20592;-73
2023/12/17 10:21:04;;;;;;;10.43;5.77;;;;;;;7.55;100.00;102907.38;5033108;28;20616;-73
2023/12/17 10:23:46;;;;;;;12.27;5.20;;;;;;;7.60;100.00;102907.44;5036971;28;20748;-71
2023/12/17 10:26:13;;;;;;;7.57;5.70;;;;;;;7.62;100.00;102905.38;5032356;28;20205;-72
2023/12/17 10:28:43;;;;;;;8.17;4.80;;;;;;;7.65;100.00;102900.41;5029714;28;20680;-74
2023/12/17 10:31:11;;;;;;;8.30;5.13;;;;;;;7.70;100.00;102903.06;5018770;28;20216;-73
2023/12/17 10:33:46;;;;;;;11.17;4.93;;;;;;;7.72;100.00;102905.47;5037230;28;20222;-73
2023/12/17 10:36:12;;;;;;;8.30;5.23;;;;;;;7.75;100.00;102908.38;5036791;28;20207;-72
2023/12/17 10:38:40;;;;;;;7.07;4.93;;;;;;;7.78;100.00;102902.63;5038746;28;20223;-73
2023/12/17 10:41:07;;;;;;;7.23;4.87;;;;;;;7.79;100.00;102891.06;5035965;28;20209;-73
2023/12/17 10:43:36;;;;;;;7.70;4.97;;;;;;;7.79;100.00;102890.25;5039672;28;20205;-73
2023/12/17 10:46:02;;;;;;;9.80;5.03;;;;;;;7.81;100.00;102881.06;5036206;28;20202;-73
2023/12/17 10:48:29;;;;;;;9.40;4.87;;;;;;;7.81;100.00;102867.16;5038138;28;20225;-73
2023/12/17 10:50:57;;;;;;;8.87;4.80;;;;;;;7.83;100.00;102875.56;5036189;28;20202;-73
2023/12/17 10:53:23;;;;;;;9.57;5.43;;;;;;;7.82;100.00;102872.13;5036434;28;20226;-73
2023/12/17 10:55:51;;;;;;;9.37;5.30;;;;;;;7.86;100.00;102864.53;5041228;28;20205;-73
2023/12/17 10:58:21;;;;;;;7.87;4.90;;;;;;;7.86;99.87;102856.63;5035260;28;20231;-73
2023/12/17 11:00:48;;;;;;;7.83;5.20;;;;;;;7.90;100.00;102858.53;5036898;28;20203;-73
2023/12/17 11:03:15;;;;;;;10.53;5.97;;;;;;;7.91;100.00;102851.41;5033839;28;20215;-73
2023/12/17 11:05:54;;;;;;;5.87;4.53;;;;;;;7.90;100.00;102857.72;5016329;28;20204;-73
2023/12/17 11:08:23;;;;;;;7.80;4.73;;;;;;;7.88;99.86;102870.34;5033362;28;20227;-73
2023/12/17 11:10:51;;;;;;;7.73;5.17;;;;;;;7.87;100.00;102863.50;5032688;28;20205;-73
2023/12/17 11:13:21;;;;;;;9.07;5.93;;;;;;;7.89;99.64;102858.78;5034811;28;20230;-73
2023/12/17 11:15:47;;;;;;;10.73;5.27;;;;;;;7.89;99.53;102850.88;5036962;28;20667;-73
2023/12/17 11:18:14;;;;;;;9.67;5.20;;;;;;;7.90;100.00;102857.72;5032204;28;20228;-74
2023/12/17 11:20:41;;;;;;;7.43;4.97;;;;;;;7.90;100.00;102850.66;5037724;28;20203;-73